createdAt,value
2018-11-28T00:00:25.486Z,102293.77
2018-11-28T00:02:56.279Z,102293.72
2018-11-28T00:05:29.063Z,102290.39
2018-11-28T00:08:01.227Z,102294.73
2018-11-28T00:10:36.469Z,102295.98
2018-11-28T00:13:12.731Z,102293.52
2018-11-28T00:15:43.672Z,102283.95
2018-11-28T00:18:14.643Z,102287.31
2018-11-28T00:20:47.186Z,102291.05
2018-11-28T00:23:19.700Z,102005.79
2018-11-28T00:26:51.720Z,102278.49
2018-11-28T00:29:22.511Z,102282.06
2018-11-28T00:31:53.848Z,102284.44
2018-11-28T00:34:26.595Z,102274.16
2018-11-28T00:36:59.203Z,102270.27
2018-11-28T00:39:30.347Z,102268.55
2018-11-28T00:42:03.021Z,102273.22
2018-11-28T00:44:36.652Z,102280.45
2018-11-28T00:47:10.200Z,102285.30
2018-11-28T00:49:41.574Z,102284.35
2018-11-28T00:52:17.579Z,102286.46
2018-11-28T00:54:49.697Z,102290.09
2018-11-28T00:57:19.300Z,102301.20
2018-11-28T00:59:52.631Z,102296.05
2018-11-28T01:02:24.226Z,102294.34
2018-11-28T01:04:57.051Z,102292.88
2018-11-28T01:07:27.945Z,102304.86
2018-11-28T01:09:58.133Z,102019.92
2018-11-28T01:12:30.868Z,102305.84
2018-11-28T01:15:05.487Z,102307.19
2018-11-28T01:17:36.819Z,102303.98
2018-11-28T01:20:18.081Z,102304.41
2018-11-28T01:22:47.566Z,102305.61
2018-11-28T01:25:20.603Z,102306.91
2018-11-28T01:27:53.065Z,102300.92
2018-11-28T01:30:26.006Z,102297.34
2018-11-28T01:32:57.993Z,102306.70
2018-11-28T01:35:31.011Z,102312.63
2018-11-28T01:38:02.672Z,102309.03
2018-11-28T01:40:35.757Z,102307.48
2018-11-28T01:43:07.596Z,102302.11
2018-11-28T01:45:38.006Z,102313.27
2018-11-28T01:48:09.380Z,102296.46
2018-11-28T01:50:40.526Z,102296.61
2018-11-28T01:53:12.301Z,102293.37
2018-11-28T01:55:43.129Z,102301.99
2018-11-28T01:58:13.542Z,102301.02
2018-11-28T02:00:46.731Z,102309.16
2018-11-28T02:03:19.117Z,102299.12
2018-11-28T02:05:53.921Z,102302.67
2018-11-28T02:09:28.158Z,102305.23
2018-11-28T02:11:59.918Z,102306.98
2018-11-28T02:14:32.086Z,102307.02
2018-11-28T02:17:02.612Z,102306.50
2018-11-28T02:19:34.775Z,102305.41
2018-11-28T02:22:06.130Z,102305.16
2018-11-28T02:24:35.431Z,102303.45
2018-11-28T02:27:05.779Z,102307.42
2018-11-28T02:29:36.281Z,102310.06
2018-11-28T02:32:07.431Z,102305.77
2018-11-28T02:34:41.228Z,102316.31
2018-11-28T02:37:11.177Z,102316.96
2018-11-28T02:39:43.722Z,102316.58
2018-11-28T02:42:19.371Z,102313.76
2018-11-28T02:44:49.899Z,102325.41
2018-11-28T02:47:20.437Z,102039.59
2018-11-28T02:49:53.725Z,102322.38
2018-11-28T02:52:25.222Z,102320.52
2018-11-28T02:54:56.317Z,102324.16
2018-11-28T02:57:26.702Z,102321.53
2018-11-28T03:00:00.442Z,102321.77
2018-11-28T03:02:30.306Z,102330.01
2018-11-28T03:05:01.690Z,102340.64
2018-11-28T03:07:30.510Z,102338.12
2018-11-28T03:10:00.721Z,102330.06
2018-11-28T03:12:29.802Z,102330.58
2018-11-28T03:15:02.502Z,102341.66
2018-11-28T03:17:33.572Z,102332.67
2018-11-28T03:20:04.241Z,102340.58
2018-11-28T03:22:34.369Z,102342.84
2018-11-28T03:25:08.066Z,102335.74
2018-11-28T03:27:39.029Z,102341.80
2018-11-28T03:30:15.378Z,102349.41
2018-11-28T03:32:46.248Z,102350.62
2018-11-28T03:35:16.810Z,102344.26
2018-11-28T03:37:46.034Z,102338.39
2018-11-28T03:40:15.505Z,102344.67
2018-11-28T03:42:45.352Z,102347.21
2018-11-28T03:45:16.706Z,102355.91
2018-11-28T03:47:47.259Z,102355.25
2018-11-28T03:50:17.149Z,102354.98
2018-11-28T03:52:48.754Z,102357.94
2018-11-28T03:55:18.509Z,102363.53
2018-11-28T03:57:50.062Z,102365.42
2018-11-28T04:00:23.555Z,102369.33
2018-11-28T04:02:52.961Z,102366.77
2018-11-28T04:05:24.306Z,102360.70
2018-11-28T04:07:54.833Z,102365.16
2018-11-28T04:10:27.947Z,102366.91
2018-11-28T04:12:58.556Z,102367.97
2018-11-28T04:15:29.388Z,102363.20
2018-11-28T04:17:59.805Z,102368.55
2018-11-28T04:20:30.452Z,102373.17
2018-11-28T04:23:00.183Z,102372.24
2018-11-28T04:25:32.586Z,102376.50
2018-11-28T04:28:02.859Z,102378.78
2018-11-28T04:30:32.759Z,102384.19
2018-11-28T04:33:02.983Z,102382.69
2018-11-28T04:35:33.637Z,102380.83
2018-11-28T04:38:04.372Z,102379.44
2018-11-28T04:40:33.547Z,102379.12
2018-11-28T04:43:03.768Z,102384.60
2018-11-28T04:45:34.090Z,102392.59
2018-11-28T04:48:04.540Z,102379.33
2018-11-28T04:50:34.327Z,102374.34
2018-11-28T04:53:05.776Z,102380.62
2018-11-28T04:55:35.896Z,102375.85
2018-11-28T04:58:05.151Z,102377.25
2018-11-28T05:03:31.234Z,102375.23
2018-11-28T05:06:01.864Z,102384.09
2018-11-28T05:08:31.935Z,102384.27
2018-11-28T05:11:02.416Z,102381.83
2018-11-28T05:13:33.144Z,102383.73
2018-11-28T05:16:03.524Z,102386.17
2018-11-28T05:18:34.057Z,102388.44
2018-11-28T05:21:04.930Z,102394.56
2018-11-28T05:23:34.870Z,102396.80
2018-11-28T05:26:05.409Z,102392.03
2018-11-28T05:28:42.326Z,102396.84
2018-11-28T05:31:12.778Z,102407.20
2018-11-28T05:33:45.474Z,102401.27
2018-11-28T05:36:16.434Z,102405.05
2018-11-28T05:38:46.615Z,102408.84
2018-11-28T05:41:16.628Z,102406.20
2018-11-28T05:43:46.692Z,102398.11
2018-11-28T05:46:17.378Z,102399.66
2018-11-28T05:48:47.910Z,102399.58
2018-11-28T05:51:21.822Z,102413.69
2018-11-28T05:53:58.467Z,102411.03
2018-11-28T05:56:33.792Z,102421.72
2018-11-28T05:59:04.701Z,102422.45
2018-11-28T06:01:38.070Z,102417.98
2018-11-28T06:04:09.506Z,102409.76
2018-11-28T06:06:43.434Z,102420.98
2018-11-28T06:09:13.531Z,102422.36
2018-11-28T06:11:44.163Z,102430.13
2018-11-28T06:14:14.866Z,102430.84
2018-11-28T06:16:44.810Z,102434.14
2018-11-28T06:19:15.952Z,102434.23
2018-11-28T06:21:48.154Z,102432.69
2018-11-28T06:24:18.203Z,102424.13
2018-11-28T06:26:49.894Z,102428.39
2018-11-28T06:29:22.463Z,102430.38
2018-11-28T06:31:55.763Z,102430.22
2018-11-28T06:34:26.805Z,102424.59
2018-11-28T06:36:57.916Z,102431.78
2018-11-28T06:39:31.470Z,102435.06
2018-11-28T06:42:01.554Z,102434.64
2018-11-28T06:44:30.958Z,102433.30
2018-11-28T06:47:02.419Z,102443.44
2018-11-28T06:49:33.040Z,102452.84
2018-11-28T06:52:07.559Z,102449.45
2018-11-28T06:54:39.573Z,102455.77
2018-11-28T06:57:11.073Z,102445.10
2018-11-28T06:59:42.247Z,102452.86
2018-11-28T07:02:12.619Z,102463.23
2018-11-28T07:04:47.966Z,102467.67
2018-11-28T07:07:22.690Z,102465.97
2018-11-28T07:09:53.667Z,102467.14
2018-11-28T07:12:25.922Z,102461.72
2018-11-28T07:15:01.372Z,102475.07
2018-11-28T07:17:32.712Z,102471.53
2018-11-28T07:20:05.214Z,102478.27
2018-11-28T07:22:36.621Z,102471.03
2018-11-28T07:25:09.866Z,102477.39
2018-11-28T07:27:45.129Z,102477.53
2018-11-28T07:30:17.267Z,102483.42
2018-11-28T07:32:52.482Z,102483.87
2018-11-28T07:35:23.017Z,102485.85
2018-11-28T07:37:54.922Z,102495.86
2018-11-28T07:40:28.599Z,102496.42
2018-11-28T07:43:10.379Z,102498.73
2018-11-28T07:45:46.314Z,102500.75
2018-11-28T07:48:17.371Z,102495.64
2018-11-28T07:50:48.355Z,102241.13
2018-11-28T07:53:20.608Z,102504.20
2018-11-28T07:55:51.473Z,102511.45
2018-11-28T07:58:22.403Z,102509.09
2018-11-28T08:00:53.872Z,102506.80
2018-11-28T08:03:24.606Z,102506.60
2018-11-28T08:06:06.302Z,102502.96
2018-11-28T08:08:40.178Z,102506.27
2018-11-28T08:11:12.576Z,102509.63
2018-11-28T08:13:43.287Z,102504.71
2018-11-28T08:16:17.932Z,102500.75
2018-11-28T08:18:52.842Z,102507.41
2018-11-28T08:21:22.856Z,102506.91
2018-11-28T08:23:55.887Z,102517.83
2018-11-28T08:26:28.419Z,102509.53
2018-11-28T08:28:58.359Z,102506.24
2018-11-28T08:31:28.576Z,102511.05
2018-11-28T08:34:01.072Z,102511.39
2018-11-28T08:36:32.910Z,102521.25
2018-11-28T08:39:04.156Z,102512.98
2018-11-28T08:41:34.472Z,102517.58
2018-11-28T08:44:06.018Z,102523.09
2018-11-28T08:46:38.006Z,102520.56
2018-11-28T08:49:08.295Z,102306.75
2018-11-28T08:51:39.735Z,102515.69
2018-11-28T08:54:13.671Z,102513.54
2018-11-28T08:56:46.153Z,102513.88
2018-11-28T08:59:15.855Z,102510.91
2018-11-28T09:01:46.806Z,102514.61
2018-11-28T09:04:16.947Z,102511.30
2018-11-28T09:06:47.571Z,102507.05
2018-11-28T09:09:17.011Z,102516.20
2018-11-28T09:11:50.673Z,102517.31
2018-11-28T09:14:20.882Z,102524.47
2018-11-28T09:16:50.580Z,102520.52
2018-11-28T09:19:22.415Z,102519.48
2018-11-28T09:21:55.299Z,102517.16
2018-11-28T09:24:24.539Z,102513.46
2018-11-28T09:26:56.022Z,102519.65
2018-11-28T09:29:26.719Z,102526.16
2018-11-28T09:31:58.717Z,102513.75
2018-11-28T09:34:29.194Z,102515.28
2018-11-28T09:36:58.875Z,102513.02
2018-11-28T09:39:29.529Z,102513.34
2018-11-28T09:42:00.568Z,102514.81
2018-11-28T09:44:31.105Z,102515.17
2018-11-28T09:47:01.403Z,102516.95
2018-11-28T09:49:33.189Z,102516.55
2018-11-28T09:52:03.877Z,102515.34
2018-11-28T09:54:34.146Z,102514.59
2018-11-28T09:57:04.767Z,102507.71
2018-11-28T09:59:35.800Z,102514.23
2018-11-28T10:02:06.340Z,102520.14
2018-11-28T10:04:36.959Z,102518.92
2018-11-28T10:07:07.502Z,102515.55
2018-11-28T10:09:36.985Z,102514.02
2018-11-28T10:12:09.063Z,102477.13
2018-11-28T10:14:39.787Z,102436.73
2018-11-28T10:17:10.222Z,102426.77
2018-11-28T10:19:40.897Z,102414.93
2018-11-28T10:22:11.279Z,102416.69
2018-11-28T10:24:41.910Z,102407.78
2018-11-28T10:27:14.946Z,102425.48
2018-11-28T10:29:45.243Z,102461.55
2018-11-28T10:32:16.569Z,102462.91
2018-11-28T10:34:47.242Z,102457.09
2018-11-28T10:37:17.725Z,102448.98
2018-11-28T10:39:48.656Z,102438.39
2018-11-28T10:42:19.601Z,102425.73
2018-11-28T10:44:51.005Z,102443.81
2018-11-28T10:47:21.169Z,102458.78
2018-11-28T10:49:51.578Z,102469.56
2018-11-28T10:52:22.226Z,102464.59
2018-11-28T10:54:52.555Z,102447.56
2018-11-28T10:57:23.584Z,102446.60
2018-11-28T10:59:54.119Z,102465.19
2018-11-28T11:02:30.312Z,102450.25
2018-11-28T11:05:05.914Z,102463.87
2018-11-28T11:07:42.285Z,102482.02
2018-11-28T11:10:19.824Z,102472.88
2018-11-28T11:12:54.815Z,102462.23
2018-11-28T11:15:25.551Z,102479.63
2018-11-28T11:18:02.142Z,102474.17
2018-11-28T11:20:27.935Z,102473.27
2018-11-28T11:22:59.595Z,102470.16
2018-11-28T11:25:29.698Z,102483.44
2018-11-28T11:28:01.059Z,102475.20
2018-11-28T11:30:31.169Z,102472.97
2018-11-28T11:33:00.978Z,102473.03
2018-11-28T11:35:32.651Z,102469.80
2018-11-28T11:38:04.498Z,102466.86
2018-11-28T11:40:35.745Z,102475.02
2018-11-28T11:43:07.378Z,102474.42
2018-11-28T11:45:37.582Z,102479.19
2018-11-28T11:48:07.847Z,102473.73
2018-11-28T11:50:39.662Z,102473.07
2018-11-28T11:53:13.156Z,102476.93
2018-11-28T11:55:44.983Z,102474.27
2018-11-28T11:58:17.224Z,102476.51
2018-11-28T12:00:49.483Z,102474.66
2018-11-28T12:03:20.790Z,102478.02
2018-11-28T12:05:57.321Z,102470.91
2018-11-28T12:08:30.185Z,102465.34
2018-11-28T12:11:02.284Z,102468.40
2018-11-28T12:13:34.430Z,102457.72
2018-11-28T12:16:04.933Z,102455.05
2018-11-28T12:18:42.614Z,102448.20
2018-11-28T12:21:13.989Z,102444.20
2018-11-28T12:23:46.729Z,102443.31
2018-11-28T12:26:18.184Z,102429.08
2018-11-28T12:28:49.454Z,102437.66
2018-11-28T12:31:20.526Z,102436.90
2018-11-28T12:33:54.837Z,102438.88
2018-11-28T12:36:29.962Z,102427.28
2018-11-28T12:39:04.079Z,102435.93
2018-11-28T12:41:36.628Z,102436.25
2018-11-28T12:44:06.977Z,102439.38
2018-11-28T12:46:42.822Z,102438.78
2018-11-28T12:49:14.717Z,102428.96
2018-11-28T12:51:47.570Z,102428.09
2018-11-28T12:54:18.784Z,102429.44
2018-11-28T12:56:51.590Z,102418.35
2018-11-28T12:59:23.215Z,102424.97
2018-11-28T13:01:57.697Z,102411.50
2018-11-28T13:04:29.862Z,102405.73
2018-11-28T13:07:03.885Z,102405.16
2018-11-28T13:09:33.222Z,102402.89
2018-11-28T13:12:03.166Z,102398.81
2018-11-28T13:14:33.967Z,102394.25
2018-11-28T13:17:05.962Z,102394.66
2018-11-28T13:19:37.707Z,102392.09
2018-11-28T13:22:07.699Z,102400.83
2018-11-28T13:24:38.872Z,102388.48
2018-11-28T13:27:11.158Z,102389.41
2018-11-28T13:29:41.550Z,102384.76
2018-11-28T13:32:11.366Z,102380.01
2018-11-28T13:34:41.498Z,102376.03
2018-11-28T13:37:11.499Z,102379.91
2018-11-28T13:39:42.831Z,102391.86
2018-11-28T13:42:13.790Z,102383.39
2018-11-28T13:44:44.642Z,102382.59
2018-11-28T13:47:14.825Z,102383.19
2018-11-28T13:49:45.082Z,102384.69
2018-11-28T13:52:14.811Z,102378.16
2018-11-28T13:55:37.844Z,102382.39
2018-11-28T13:57:16.671Z,102390.41
2018-11-28T13:59:45.874Z,102387.06
2018-11-28T14:02:17.162Z,102391.98
2018-11-28T14:04:50.042Z,102388.44
2018-11-28T14:07:19.482Z,102391.09
2018-11-28T14:09:48.843Z,102392.44
2018-11-28T14:12:24.649Z,102398.25
2018-11-28T14:14:56.563Z,102398.16
2018-11-28T14:17:26.098Z,102389.37
2018-11-28T14:19:57.219Z,102392.89
2018-11-28T14:22:30.749Z,102391.94
2018-11-28T14:25:03.900Z,102393.58
2018-11-28T14:27:35.209Z,102387.52
2018-11-28T14:30:05.718Z,102383.92
2018-11-28T14:32:35.783Z,102385.63
2018-11-28T14:35:09.225Z,102391.69
2018-11-28T14:37:39.966Z,102389.39
2018-11-28T14:40:17.658Z,102392.10
2018-11-28T14:42:48.318Z,102392.57
2018-11-28T14:45:19.055Z,102393.78
2018-11-28T14:47:50.727Z,102390.32
2018-11-28T14:50:32.702Z,102386.83
2018-11-28T14:53:05.935Z,102385.64
2018-11-28T14:55:38.107Z,102115.14
2018-11-28T14:58:10.107Z,102390.36
2018-11-28T15:00:40.287Z,102384.03
2018-11-28T15:03:17.605Z,102379.70
2018-11-28T15:06:56.432Z,102386.73
2018-11-28T15:09:32.855Z,102381.09
2018-11-28T15:12:03.211Z,102382.03
2018-11-28T15:14:32.609Z,102385.52
2018-11-28T15:17:02.831Z,102387.13
2018-11-28T15:19:33.066Z,102378.69
2018-11-28T15:22:03.119Z,102378.77
2018-11-28T15:24:33.506Z,102381.14
2018-11-28T15:27:05.058Z,102383.33
2018-11-28T15:29:35.803Z,102383.48
2018-11-28T15:32:06.823Z,102377.55
2018-11-28T15:34:37.336Z,102383.39
2018-11-28T15:37:08.923Z,102380.76
2018-11-28T15:39:41.018Z,102387.38
2018-11-28T15:42:10.402Z,102384.16
2018-11-28T15:44:41.450Z,102389.76
2018-11-28T15:47:14.494Z,102377.96
2018-11-28T15:49:45.226Z,102382.16
2018-11-28T15:52:17.779Z,102375.91
2018-11-28T15:54:48.035Z,102373.81
2018-11-28T15:57:18.977Z,102380.84
2018-11-28T15:59:50.024Z,102377.10
2018-11-28T16:02:20.170Z,102386.37
2018-11-28T16:04:55.394Z,102383.23
2018-11-28T16:07:26.725Z,102388.90
2018-11-28T16:10:02.076Z,102392.30
2018-11-28T16:12:32.177Z,102389.66
2018-11-28T16:15:02.398Z,102390.97
2018-11-28T16:17:33.235Z,102385.13
2018-11-28T16:20:04.400Z,102389.30
2018-11-28T16:22:34.904Z,102393.22
2018-11-28T16:25:05.636Z,102391.56
2018-11-28T16:27:41.707Z,102389.92
2018-11-28T16:30:11.268Z,102391.33
2018-11-28T16:32:42.342Z,102393.78
2018-11-28T16:35:14.304Z,102404.27
2018-11-28T16:37:44.944Z,102404.53
2018-11-28T16:40:16.419Z,102405.70
2018-11-28T16:42:46.803Z,102406.77
2018-11-28T16:45:18.908Z,102408.00
2018-11-28T16:47:50.344Z,102408.97
2018-11-28T16:50:21.175Z,102410.37
2018-11-28T16:52:51.585Z,102405.20
2018-11-28T16:55:21.388Z,102396.27
2018-11-28T16:57:53.578Z,102396.66
2018-11-28T17:00:26.241Z,102400.48
2018-11-28T17:02:56.971Z,102398.35
2018-11-28T17:05:26.885Z,102401.66
2018-11-28T17:07:57.682Z,102393.73
2018-11-28T17:10:30.914Z,102392.29
2018-11-28T17:13:00.935Z,102379.51
2018-11-28T17:15:31.867Z,102376.88
2018-11-28T17:18:01.687Z,102376.88
2018-11-28T17:20:31.791Z,102378.05
2018-11-28T17:23:02.150Z,102381.37
2018-11-28T17:25:32.847Z,102384.47
2018-11-28T17:28:05.637Z,102380.09
2018-11-28T17:30:36.010Z,102381.48
2018-11-28T17:33:12.304Z,102377.14
2018-11-28T17:35:50.423Z,102379.28
2018-11-28T17:38:19.930Z,102376.31
2018-11-28T17:40:54.671Z,102383.90
2018-11-28T17:43:26.160Z,102382.27
2018-11-28T17:45:57.918Z,102384.36
2018-11-28T17:48:28.314Z,102380.80
2018-11-28T17:50:58.506Z,102376.53
2018-11-28T17:53:32.517Z,102372.92
2018-11-28T17:56:05.062Z,102376.41
2018-11-28T17:58:36.305Z,102376.23
2018-11-28T18:01:07.385Z,102378.33
2018-11-28T18:03:37.503Z,102376.19
2018-11-28T18:06:08.722Z,102376.58
2018-11-28T18:08:44.070Z,102375.11
2018-11-28T18:11:14.310Z,102375.50
2018-11-28T18:13:45.289Z,102378.41
2018-11-28T18:16:15.315Z,102377.02
2018-11-28T18:18:49.676Z,102369.27
2018-11-28T18:21:22.148Z,102352.84
2018-11-28T18:23:52.273Z,102350.20
2018-11-28T18:26:25.542Z,102347.73
2018-11-28T18:28:55.065Z,102348.92
2018-11-28T18:31:25.713Z,102341.34
2018-11-28T18:33:55.923Z,102353.46
2018-11-28T18:36:27.853Z,102361.28
2018-11-28T18:38:59.250Z,102369.09
2018-11-28T18:41:29.939Z,102360.50
2018-11-28T18:43:59.890Z,102362.80
2018-11-28T18:46:30.104Z,102356.59
2018-11-28T18:49:00.017Z,102358.56
2018-11-28T18:51:30.439Z,102362.96
2018-11-28T18:54:00.461Z,102366.33
2018-11-28T18:56:30.993Z,102359.80
2018-11-28T18:59:01.025Z,102361.10
2018-11-28T19:01:30.724Z,102362.96
2018-11-28T19:04:00.419Z,102371.48
2018-11-28T19:06:31.044Z,102369.19
2018-11-28T19:09:08.555Z,102368.10
2018-11-28T19:11:40.882Z,102369.02
2018-11-28T19:14:12.494Z,102367.80
2018-11-28T19:16:43.454Z,102375.52
2018-11-28T19:19:15.560Z,102366.09
2018-11-28T19:21:47.127Z,102369.67
2018-11-28T19:24:22.963Z,102370.17
2018-11-28T19:26:53.739Z,102074.66
2018-11-28T19:29:23.031Z,102366.38
2018-11-28T19:31:55.725Z,102377.03
2018-11-28T19:34:27.665Z,102377.20
2018-11-28T19:36:57.919Z,102379.11
2018-11-28T19:39:29.361Z,102374.00
2018-11-28T19:41:59.502Z,102373.03
2018-11-28T19:44:28.931Z,102377.97
2018-11-28T19:47:01.616Z,102378.35
2018-11-28T19:49:30.891Z,102372.95
2018-11-28T19:52:00.649Z,102371.44
2018-11-28T19:54:30.154Z,102368.57
2018-11-28T19:57:01.868Z,102369.76
2018-11-28T19:59:31.286Z,102356.91
2018-11-28T20:02:03.014Z,102366.84
2018-11-28T20:04:35.291Z,102360.62
2018-11-28T20:07:05.061Z,102367.56
2018-11-28T20:09:35.083Z,102363.22
2018-11-28T20:12:06.871Z,102368.48
2018-11-28T20:14:36.502Z,102360.03
2018-11-28T20:17:06.569Z,102368.82
2018-11-28T20:19:36.162Z,102379.53
2018-11-28T20:22:09.362Z,102373.20
2018-11-28T20:24:38.581Z,102376.91
2018-11-28T20:27:08.809Z,102383.44
2018-11-28T20:29:38.439Z,102373.70
2018-11-28T20:32:08.666Z,102372.61
2018-11-28T20:34:40.211Z,102372.70
2018-11-28T20:37:11.148Z,102379.98
2018-11-28T20:39:41.887Z,102382.67
2018-11-28T20:42:11.512Z,102386.34
2018-11-28T20:44:42.838Z,102392.11
2018-11-28T20:47:12.919Z,102383.72
2018-11-28T20:49:43.586Z,102376.86
2018-11-28T20:52:14.054Z,102381.37
2018-11-28T20:54:46.516Z,102378.38
2018-11-28T20:57:17.389Z,102377.56
2018-11-28T20:59:45.235Z,102372.98
2018-11-28T21:02:16.130Z,102367.93
2018-11-28T21:04:46.684Z,102361.36
2018-11-28T21:07:16.879Z,102348.09
2018-11-28T21:09:55.832Z,102340.55
2018-11-28T21:12:26.237Z,102341.60
2018-11-28T21:14:56.551Z,102339.95
2018-11-28T21:17:27.888Z,102342.95
2018-11-28T21:19:58.325Z,102340.29
2018-11-28T21:22:29.265Z,102346.02
2018-11-28T21:24:59.590Z,102346.18
2018-11-28T21:27:35.871Z,102332.24
2018-11-28T21:30:13.086Z,102335.41
2018-11-28T21:32:43.460Z,102336.92
2018-11-28T21:35:18.491Z,102324.53
2018-11-28T21:37:49.282Z,102324.00
2018-11-28T21:40:21.058Z,102322.78
2018-11-28T21:42:50.461Z,102335.74
2018-11-28T21:45:21.630Z,102339.75
2018-11-28T21:47:52.669Z,102350.89
2018-11-28T21:50:23.096Z,102348.37
2018-11-28T21:52:54.039Z,102351.03
2018-11-28T21:55:25.623Z,102344.19
2018-11-28T21:57:55.933Z,102332.04
2018-11-28T22:00:26.450Z,102325.81
2018-11-28T22:02:57.204Z,102329.62
2018-11-28T22:05:27.392Z,102331.87
2018-11-28T22:07:57.510Z,102329.85
2018-11-28T22:10:27.317Z,102329.02
2018-11-28T22:12:57.645Z,102327.91
2018-11-28T22:15:28.582Z,102322.31
2018-11-28T22:17:59.318Z,102327.73
2018-11-28T22:20:30.049Z,102328.57
2018-11-28T22:23:00.884Z,102327.53
2018-11-28T22:25:31.311Z,102333.12
2018-11-28T22:28:01.842Z,102330.56
2018-11-28T22:30:31.753Z,102325.00
2018-11-28T22:33:02.074Z,102322.14
2018-11-28T22:35:32.914Z,102325.88
2018-11-28T22:38:03.624Z,102320.36
2018-11-28T22:40:33.962Z,102306.19
2018-11-28T22:43:05.111Z,102308.11
2018-11-28T22:45:36.251Z,102323.05
2018-11-28T22:48:07.119Z,102317.80
2018-11-28T22:50:38.660Z,102316.16
2018-11-28T22:53:08.658Z,102311.34
2018-11-28T22:55:39.800Z,102308.81
2018-11-28T22:58:10.125Z,102304.41
2018-11-28T23:00:45.364Z,102298.41
2018-11-28T23:03:15.038Z,102291.14
2018-11-28T23:05:46.185Z,102296.90
2018-11-28T23:08:17.459Z,102294.87
2018-11-28T23:10:47.713Z,102295.34
2018-11-28T23:13:19.697Z,102300.50
2018-11-28T23:16:50.039Z,102295.85
2018-11-28T23:19:21.526Z,102288.31
2018-11-28T23:21:51.329Z,102287.03
2018-11-28T23:24:22.427Z,102292.89
2018-11-28T23:26:52.901Z,102282.59
2018-11-28T23:29:25.488Z,102277.61
2018-11-28T23:31:55.594Z,102267.15
2018-11-28T23:34:26.635Z,102262.13
2018-11-28T23:36:59.275Z,102254.56
2018-11-28T23:39:31.767Z,102264.99
2018-11-28T23:42:01.494Z,102264.45
2018-11-28T23:44:31.861Z,102263.25
2018-11-28T23:47:01.940Z,102259.11
2018-11-28T23:49:32.979Z,102254.36
2018-11-28T23:52:05.630Z,102257.39
2018-11-28T23:54:37.726Z,102248.23
2018-11-28T23:57:09.455Z,102242.52
2018-11-28T23:59:38.976Z,102250.89
